Terminal Aerodrome Forecast
Issued by NWS

Home | Current Version | Previous Version | Text Only | Print | Product List | Glossary On
Versions: 1 2 3 4 5 6 7 8 9 10 11 12 13 14 15 16 17 18 19 20 21 22
870
FTUS46 KPDT 142059 AAA
TAFBDN
TAF AMD
KBDN 142059Z 1421/1518 23011G20KT P6SM VCSH BKN040 OVC080
     FM150200 22011G20KT P6SM BKN080
     FM150900 22008KT P6SM SCT250=

USA.gov is the U.S. government's official web portal to all federal, state and local government web resources and services.